createdAt,value
2018-07-09T00:02:29.281Z,3.53
2018-07-09T00:05:33.346Z,4.27
2018-07-09T00:08:37.256Z,3.40
2018-07-09T00:11:41.173Z,4.63
2018-07-09T00:14:45.097Z,4.03
2018-07-09T00:17:49.028Z,3.80
2018-07-09T00:20:52.957Z,3.93
2018-07-09T00:23:56.874Z,4.70
2018-07-09T00:27:00.897Z,4.73
2018-07-09T00:30:04.814Z,4.30
2018-07-09T00:33:08.889Z,4.97
2018-07-09T00:36:12.829Z,4.37
2018-07-09T00:39:16.749Z,5.20
2018-07-09T00:42:20.820Z,5.60
2018-07-09T00:45:24.918Z,4.20
2018-07-09T00:48:28.926Z,4.17
2018-07-09T00:51:33.033Z,5.13
2018-07-09T00:54:37.047Z,4.97
2018-07-09T00:57:41.262Z,4.50
2018-07-09T01:00:45.184Z,4.70
2018-07-09T01:03:49.106Z,5.03
2018-07-09T01:06:53.215Z,4.20
2018-07-09T01:09:57.192Z,5.10
2018-07-09T01:13:01.114Z,4.20
2018-07-09T01:16:05.064Z,4.10
2018-07-09T01:19:09.044Z,4.70
2018-07-09T01:22:12.936Z,4.37
2018-07-09T01:25:16.965Z,4.67
2018-07-09T01:28:20.976Z,3.47
2018-07-09T01:31:24.884Z,4.17
2018-07-09T01:34:28.849Z,3.90
2018-07-09T01:37:32.813Z,5.03
2018-07-09T01:40:36.737Z,4.43
2018-07-09T01:43:40.662Z,4.67
2018-07-09T01:46:44.557Z,3.90
2018-07-09T01:49:48.512Z,4.63
2018-07-09T01:52:52.510Z,3.40
2018-07-09T01:55:56.494Z,4.50
2018-07-09T01:59:00.487Z,5.13
2018-07-09T02:02:04.449Z,4.73
2018-07-09T02:05:08.330Z,4.50
2018-07-09T02:08:12.303Z,4.27
2018-07-09T02:11:16.198Z,4.27
2018-07-09T02:14:20.174Z,4.90
2018-07-09T02:17:24.061Z,4.30
2018-07-09T02:20:28.030Z,3.80
2018-07-09T02:23:31.918Z,5.00
2018-07-09T02:26:35.983Z,4.30
2018-07-09T02:29:39.884Z,4.20
2018-07-09T02:32:43.825Z,4.57
2018-07-09T02:35:47.815Z,4.03
2018-07-09T02:38:51.733Z,3.70
2018-07-09T02:41:55.686Z,4.83
2018-07-09T02:44:59.611Z,4.50
2018-07-09T02:48:03.510Z,3.97
2018-07-09T02:51:07.844Z,4.40
2018-07-09T02:54:11.897Z,4.60
2018-07-09T02:57:15.850Z,4.97
2018-07-09T03:00:20.050Z,4.33
2018-07-09T03:03:24.405Z,4.80
2018-07-09T03:06:28.342Z,4.57
2018-07-09T03:09:32.225Z,5.00
2018-07-09T03:12:36.127Z,4.00
2018-07-09T03:15:40.036Z,4.70
2018-07-09T03:18:43.960Z,5.00
2018-07-09T03:21:47.876Z,4.97
2018-07-09T03:24:51.747Z,4.30
2018-07-09T03:27:55.624Z,4.77
2018-07-09T03:30:59.537Z,5.17
2018-07-09T03:34:03.471Z,5.00
2018-07-09T03:37:07.416Z,4.37
2018-07-09T03:40:11.317Z,3.90
2018-07-09T03:43:15.229Z,4.67
2018-07-09T03:46:19.183Z,4.47
2018-07-09T03:49:23.100Z,4.80
2018-07-09T03:52:26.960Z,4.33
2018-07-09T03:55:30.891Z,5.30
2018-07-09T03:58:34.784Z,4.43
2018-07-09T04:01:38.635Z,4.47
2018-07-09T04:04:42.474Z,4.30
2018-07-09T04:07:46.409Z,4.43
2018-07-09T04:10:50.288Z,5.23
2018-07-09T04:13:54.243Z,4.47
2018-07-09T04:16:58.157Z,5.07
2018-07-09T04:20:02.011Z,5.07
2018-07-09T04:23:05.917Z,4.33
2018-07-09T04:26:09.863Z,5.10
2018-07-09T04:29:13.750Z,4.00
2018-07-09T04:32:17.619Z,5.10
2018-07-09T04:35:21.568Z,5.13
2018-07-09T04:38:25.484Z,4.80
2018-07-09T04:41:29.395Z,5.40
2018-07-09T04:44:33.248Z,5.43
2018-07-09T04:47:37.148Z,5.30
2018-07-09T04:50:41.026Z,4.57
2018-07-09T04:53:44.998Z,4.77
2018-07-09T04:56:48.874Z,4.87
2018-07-09T04:59:52.789Z,5.40
2018-07-09T05:02:56.721Z,4.30
2018-07-09T05:06:00.604Z,4.23
2018-07-09T05:09:05.187Z,5.13
2018-07-09T05:12:09.120Z,4.60
2018-07-09T05:15:13.013Z,4.10
2018-07-09T05:18:16.988Z,5.83
2018-07-09T05:21:20.895Z,5.10
2018-07-09T05:24:24.900Z,4.90
2018-07-09T05:27:28.852Z,5.03
2018-07-09T05:30:32.832Z,4.30
2018-07-09T05:33:36.705Z,4.63
2018-07-09T05:36:40.589Z,4.80
2018-07-09T05:39:45.134Z,5.30
2018-07-09T05:42:49.483Z,5.50
2018-07-09T05:45:53.510Z,5.93
2018-07-09T05:48:58.497Z,4.43
2018-07-09T05:52:02.410Z,5.50
2018-07-09T05:55:06.527Z,4.00
2018-07-09T05:58:10.452Z,4.83
2018-07-09T06:01:14.357Z,4.63
2018-07-09T06:04:18.259Z,4.20
2018-07-09T06:07:22.178Z,5.40
2018-07-09T06:10:26.295Z,4.93
2018-07-09T06:13:30.286Z,5.20
2018-07-09T06:16:34.222Z,5.30
2018-07-09T06:19:38.209Z,5.27
2018-07-09T06:22:42.164Z,4.97
2018-07-09T06:25:46.213Z,3.93
2018-07-09T06:28:50.147Z,4.50
2018-07-09T06:31:54.052Z,5.17
2018-07-09T06:34:57.904Z,4.90
2018-07-09T06:38:01.893Z,5.00
2018-07-09T06:41:05.878Z,5.20
2018-07-09T06:44:09.900Z,4.90
2018-07-09T06:47:13.851Z,4.40
2018-07-09T06:50:17.771Z,5.20
2018-07-09T06:53:21.651Z,5.57
2018-07-09T06:56:25.594Z,4.87
2018-07-09T06:59:29.505Z,5.53
2018-07-09T07:02:33.467Z,5.33
2018-07-09T07:05:37.463Z,5.30
2018-07-09T07:08:41.532Z,5.00
2018-07-09T07:11:45.463Z,5.80
2018-07-09T07:14:49.371Z,4.90
2018-07-09T07:17:53.317Z,5.03
2018-07-09T07:20:57.310Z,5.43
2018-07-09T07:24:01.180Z,6.07
2018-07-09T07:27:05.276Z,4.40
2018-07-09T07:30:09.242Z,5.50
2018-07-09T07:33:13.251Z,6.20
2018-07-09T07:36:17.445Z,4.63
2018-07-09T07:39:21.462Z,5.67
2018-07-09T07:42:25.429Z,4.80
2018-07-09T07:45:29.382Z,4.53
2018-07-09T07:48:33.467Z,4.50
2018-07-09T07:51:37.523Z,4.53
2018-07-09T07:54:41.432Z,4.70
2018-07-09T07:57:45.640Z,4.53
2018-07-09T08:00:49.556Z,4.43
2018-07-09T08:03:53.492Z,4.23
2018-07-09T08:06:57.482Z,4.40
2018-07-09T08:10:01.525Z,4.37
2018-07-09T08:13:28.499Z,3.83
2018-07-09T08:16:09.632Z,3.80
2018-07-09T08:19:13.555Z,3.93
2018-07-09T08:22:17.581Z,3.60
2018-07-09T08:25:21.588Z,3.37
2018-07-09T08:28:25.758Z,3.87
2018-07-09T08:31:29.751Z,4.17
2018-07-09T08:34:33.639Z,4.33
2018-07-09T08:37:37.607Z,3.97
2018-07-09T08:40:41.589Z,3.80
2018-07-09T08:43:45.516Z,4.37
2018-07-09T08:46:49.526Z,4.27
2018-07-09T08:49:53.414Z,4.27
2018-07-09T08:52:57.383Z,3.80
2018-07-09T08:56:01.312Z,4.03
2018-07-09T08:59:05.370Z,4.30
2018-07-09T09:02:09.490Z,3.87
2018-07-09T09:05:13.404Z,3.93
2018-07-09T09:08:17.340Z,4.57
2018-07-09T09:11:21.215Z,4.00
2018-07-09T09:14:25.180Z,3.80
2018-07-09T09:17:29.250Z,3.87
2018-07-09T09:20:33.232Z,3.90
2018-07-09T09:23:37.188Z,3.50
2018-07-09T09:26:41.131Z,3.93
2018-07-09T09:29:45.047Z,3.90
2018-07-09T09:32:48.988Z,3.80
2018-07-09T09:35:52.957Z,3.90
2018-07-09T09:38:56.909Z,4.37
2018-07-09T09:42:00.830Z,3.73
2018-07-09T09:45:04.945Z,3.33
2018-07-09T09:48:08.990Z,4.40
2018-07-09T09:51:13.948Z,4.03
2018-07-09T09:54:17.924Z,3.80
2018-07-09T09:57:21.892Z,4.33
2018-07-09T10:00:31.196Z,3.90
2018-07-09T10:03:35.192Z,4.63
2018-07-09T10:06:39.094Z,4.07
2018-07-09T10:09:43.076Z,3.80
2018-07-09T10:12:46.992Z,4.67
2018-07-09T10:15:50.929Z,4.33
2018-07-09T10:18:54.900Z,4.27
2018-07-09T10:21:58.812Z,4.43
2018-07-09T10:25:02.744Z,4.40
2018-07-09T10:28:06.779Z,4.67
2018-07-09T10:31:10.691Z,4.50
2018-07-09T10:34:14.569Z,4.73
2018-07-09T10:37:18.456Z,4.20
2018-07-09T10:40:22.382Z,3.97
2018-07-09T10:43:26.258Z,4.13
2018-07-09T10:46:30.188Z,3.67
2018-07-09T10:49:34.115Z,3.90
2018-07-09T10:52:38.065Z,4.47
2018-07-09T10:55:42.046Z,4.10
2018-07-09T10:58:45.988Z,3.77
2018-07-09T11:01:49.970Z,4.10
2018-07-09T11:04:53.878Z,3.47
2018-07-09T11:07:57.845Z,4.07
2018-07-09T11:11:01.744Z,3.20
2018-07-09T11:14:05.818Z,4.50
2018-07-09T11:17:09.776Z,4.20
2018-07-09T11:20:13.700Z,4.37
2018-07-09T11:23:17.639Z,4.13
2018-07-09T11:26:21.547Z,4.37
2018-07-09T11:29:25.481Z,3.80
2018-07-09T11:32:29.685Z,4.30
2018-07-09T11:35:33.539Z,4.70
2018-07-09T11:38:37.447Z,4.37
2018-07-09T11:41:41.510Z,6.07
2018-07-09T11:44:45.517Z,4.43
2018-07-09T11:47:49.459Z,4.50
2018-07-09T11:50:53.368Z,5.27
2018-07-09T11:53:57.261Z,4.30
2018-07-09T11:57:01.140Z,4.37
2018-07-09T12:00:05.450Z,4.30
2018-07-09T12:03:09.424Z,3.87
2018-07-09T12:06:13.355Z,4.47
2018-07-09T12:09:17.259Z,5.00
2018-07-09T12:12:21.198Z,4.33
2018-07-09T12:15:25.086Z,4.83
2018-07-09T12:18:29.026Z,4.50
2018-07-09T12:21:33.068Z,3.83
2018-07-09T12:24:37.037Z,4.07
2018-07-09T12:27:41.142Z,4.00
2018-07-09T12:30:45.063Z,4.27
2018-07-09T12:33:49.231Z,4.50
2018-07-09T12:36:53.317Z,3.80
2018-07-09T12:39:57.332Z,4.67
2018-07-09T12:43:01.248Z,3.97
2018-07-09T12:46:05.255Z,3.60
2018-07-09T12:49:09.295Z,3.90
2018-07-09T12:52:13.273Z,4.50
2018-07-09T12:55:17.157Z,4.43
2018-07-09T12:58:21.081Z,4.40
2018-07-09T13:01:25.037Z,4.90
2018-07-09T13:04:29.003Z,4.83
2018-07-09T13:07:33.275Z,4.40
2018-07-09T13:10:37.200Z,4.13
2018-07-09T13:13:41.208Z,4.77
2018-07-09T13:16:45.081Z,4.20
2018-07-09T13:19:49.165Z,4.30
2018-07-09T13:22:53.129Z,3.80
2018-07-09T13:25:57.751Z,4.80
2018-07-09T13:29:01.812Z,3.80
2018-07-09T13:32:05.866Z,4.07
2018-07-09T13:35:10.629Z,4.13
2018-07-09T13:38:14.653Z,4.00
2018-07-09T13:41:18.712Z,4.57
2018-07-09T13:44:23.582Z,4.00
2018-07-09T13:47:27.815Z,4.57
2018-07-09T13:50:31.959Z,4.47
2018-07-09T13:53:35.992Z,4.13
2018-07-09T13:56:40.099Z,4.73
2018-07-09T13:59:44.082Z,4.30
2018-07-09T14:02:47.988Z,3.77
2018-07-09T14:05:52.224Z,3.70
2018-07-09T14:08:56.244Z,3.50
2018-07-09T14:12:00.177Z,4.10
2018-07-09T14:15:04.273Z,3.70
2018-07-09T14:18:08.389Z,4.00
2018-07-09T14:21:12.362Z,4.20
2018-07-09T14:24:16.687Z,4.28
2018-07-09T14:27:20.701Z,3.60
2018-07-09T14:30:24.754Z,4.30
2018-07-09T14:33:28.785Z,4.50
2018-07-09T14:36:32.738Z,3.80
2018-07-09T14:39:36.672Z,4.10
2018-07-09T14:42:40.627Z,4.00
2018-07-09T14:45:44.573Z,3.47
2018-07-09T14:48:48.554Z,3.57
2018-07-09T14:51:52.466Z,2.67
2018-07-09T14:54:56.377Z,3.10
2018-07-09T14:58:00.329Z,2.60
2018-07-09T15:01:04.386Z,3.17
2018-07-09T15:04:08.387Z,3.20
2018-07-09T15:07:12.848Z,3.13
2018-07-09T15:10:16.723Z,2.47
2018-07-09T15:13:20.613Z,3.50
2018-07-09T15:16:24.589Z,3.23
2018-07-09T15:19:28.630Z,3.13
2018-07-09T15:22:32.555Z,3.07
2018-07-09T15:25:36.547Z,3.37
2018-07-09T15:28:40.427Z,3.87
2018-07-09T15:31:55.315Z,3.53
2018-07-09T15:34:59.315Z,3.33
2018-07-09T15:38:03.261Z,3.10
2018-07-09T15:41:07.264Z,2.80
2018-07-09T15:44:11.290Z,3.00
2018-07-09T15:47:15.266Z,3.17
2018-07-09T15:50:19.264Z,3.10
2018-07-09T15:53:23.180Z,3.40
2018-07-09T15:56:28.202Z,3.30
2018-07-09T15:59:32.102Z,2.90
2018-07-09T16:02:36.056Z,4.10
2018-07-09T16:05:39.992Z,3.40
2018-07-09T16:08:43.916Z,3.63
2018-07-09T16:11:47.960Z,3.73
2018-07-09T16:14:51.888Z,4.20
2018-07-09T16:17:55.897Z,4.00
2018-07-09T16:20:59.868Z,3.40
2018-07-09T16:24:03.859Z,3.43
2018-07-09T16:27:08.459Z,3.50
2018-07-09T16:30:12.665Z,3.60
2018-07-09T16:33:16.915Z,3.87
2018-07-09T16:36:20.884Z,3.90
2018-07-09T16:39:24.851Z,3.20
2018-07-09T16:42:28.795Z,3.40
2018-07-09T16:45:32.790Z,3.83
2018-07-09T16:48:36.811Z,3.60
2018-07-09T16:51:40.750Z,3.60
2018-07-09T16:54:44.788Z,3.83
2018-07-09T16:57:48.870Z,4.20
2018-07-09T17:00:53.004Z,3.73
2018-07-09T17:03:57.058Z,3.67
2018-07-09T17:07:01.070Z,3.80
2018-07-09T17:10:05.143Z,4.23
2018-07-09T17:13:09.140Z,4.47
2018-07-09T17:16:13.146Z,4.40
2018-07-09T17:19:17.216Z,4.00
2018-07-09T17:22:21.253Z,4.33
2018-07-09T17:25:25.324Z,4.17
2018-07-09T17:28:29.384Z,3.90
2018-07-09T17:31:33.400Z,4.40
2018-07-09T17:34:37.363Z,4.60
2018-07-09T17:37:41.423Z,4.70
2018-07-09T17:40:45.360Z,4.80
2018-07-09T17:43:49.655Z,5.67
2018-07-09T17:46:54.028Z,4.27
2018-07-09T17:49:58.471Z,4.60
2018-07-09T17:53:02.450Z,3.83
2018-07-09T17:56:06.477Z,4.30
2018-07-09T17:59:10.448Z,4.70
2018-07-09T18:02:14.462Z,4.10
2018-07-09T18:05:18.405Z,4.50
2018-07-09T18:08:22.400Z,5.20
2018-07-09T18:11:26.405Z,4.20
2018-07-09T18:14:30.666Z,4.77
2018-07-09T18:17:34.693Z,4.83
2018-07-09T18:20:38.702Z,5.17
2018-07-09T18:23:42.927Z,5.10
2018-07-09T18:26:46.979Z,4.10
2018-07-09T18:29:51.057Z,5.30
2018-07-09T18:32:55.072Z,5.10
2018-07-09T18:35:59.626Z,5.47
2018-07-09T18:39:04.750Z,6.60
2018-07-09T18:42:08.827Z,4.43
2018-07-09T18:45:12.882Z,5.30
2018-07-09T18:48:17.025Z,5.00
2018-07-09T18:51:20.962Z,4.87
2018-07-09T18:54:24.973Z,5.10
2018-07-09T18:57:28.951Z,5.83
2018-07-09T19:00:32.833Z,5.60
2018-07-09T19:03:36.805Z,5.80
2018-07-09T19:06:50.115Z,6.30
2018-07-09T19:09:54.305Z,5.40
2018-07-09T19:12:58.546Z,6.30
2018-07-09T19:16:02.747Z,6.60
2018-07-09T19:19:17.439Z,6.03
2018-07-09T19:22:29.629Z,7.67
2018-07-09T19:25:32.762Z,6.53
2018-07-09T19:28:35.324Z,5.63
2018-07-09T19:31:37.821Z,6.60
2018-07-09T19:34:40.372Z,6.63
2018-07-09T19:37:43.373Z,5.77
2018-07-09T19:40:45.577Z,6.20
2018-07-09T19:43:48.195Z,6.80
2018-07-09T19:46:50.714Z,5.80
2018-07-09T19:49:53.312Z,5.97
2018-07-09T19:52:55.896Z,6.00
2018-07-09T19:55:58.535Z,5.47
2018-07-09T19:59:01.085Z,6.13
2018-07-09T20:02:03.747Z,6.07
2018-07-09T20:05:06.462Z,5.80
2018-07-09T20:08:09.182Z,6.10
2018-07-09T20:11:16.791Z,6.00
2018-07-09T20:14:24.553Z,5.73
2018-07-09T20:17:29.057Z,6.03
2018-07-09T20:20:31.599Z,6.03
2018-07-09T20:23:34.143Z,5.43
2018-07-09T20:26:36.706Z,6.20
2018-07-09T20:29:39.215Z,5.73
2018-07-09T20:32:41.834Z,6.53
2018-07-09T20:35:44.327Z,6.20
2018-07-09T20:38:46.929Z,6.20
2018-07-09T20:41:49.409Z,5.43
2018-07-09T20:44:52.025Z,6.47
2018-07-09T20:47:54.548Z,6.07
2018-07-09T20:50:57.088Z,6.37
2018-07-09T20:53:59.745Z,5.77
2018-07-09T20:57:02.391Z,6.20
2018-07-09T21:00:04.945Z,5.93
2018-07-09T21:03:07.566Z,6.37
2018-07-09T21:06:10.094Z,6.33
2018-07-09T21:09:12.618Z,5.93
2018-07-09T21:12:15.230Z,6.53
2018-07-09T21:15:17.930Z,6.20
2018-07-09T21:18:20.352Z,6.47
2018-07-09T21:21:27.081Z,6.57
2018-07-09T21:24:29.682Z,6.43
2018-07-09T21:27:32.176Z,6.30
2018-07-09T21:30:34.702Z,6.10
2018-07-09T21:33:37.301Z,7.50
2018-07-09T21:36:39.872Z,6.90
2018-07-09T21:39:42.527Z,7.13
2018-07-09T21:42:45.017Z,7.10
2018-07-09T21:45:47.570Z,6.30
2018-07-09T21:48:50.071Z,6.63
2018-07-09T21:51:52.615Z,5.80
2018-07-09T21:54:55.127Z,6.00
2018-07-09T21:57:57.691Z,6.30
2018-07-09T22:01:00.267Z,6.80
2018-07-09T22:04:02.770Z,6.90
2018-07-09T22:07:05.282Z,6.67
2018-07-09T22:10:07.830Z,6.93
2018-07-09T22:13:10.390Z,6.50
2018-07-09T22:16:12.865Z,6.50
2018-07-09T22:19:15.706Z,6.13
2018-07-09T22:22:18.277Z,5.87
2018-07-09T22:25:20.758Z,6.60
2018-07-09T22:28:23.285Z,7.43
2018-07-09T22:31:27.201Z,6.97
2018-07-09T22:34:31.207Z,6.50
2018-07-09T22:37:35.056Z,6.57
2018-07-09T22:40:38.942Z,6.10
2018-07-09T22:43:53.570Z,6.50
2018-07-09T22:46:57.561Z,7.40
2018-07-09T22:50:01.488Z,6.40
2018-07-09T22:53:05.423Z,7.03
2018-07-09T22:56:11.442Z,6.30
2018-07-09T22:59:15.370Z,6.37
2018-07-09T23:02:19.395Z,6.37
2018-07-09T23:05:23.242Z,6.53
2018-07-09T23:08:27.307Z,6.10
2018-07-09T23:11:52.786Z,5.87
2018-07-09T23:15:38.507Z,6.50
2018-07-09T23:19:07.426Z,6.47
2018-07-09T23:22:16.143Z,6.20
2018-07-09T23:28:27.475Z,6.40
2018-07-09T23:31:29.985Z,6.40
2018-07-09T23:34:32.623Z,6.37
2018-07-09T23:37:35.131Z,6.80
2018-07-09T23:40:37.726Z,5.97
2018-07-09T23:43:40.226Z,6.20
2018-07-09T23:46:42.786Z,6.20
2018-07-09T23:49:45.351Z,6.30
2018-07-09T23:52:47.934Z,6.80
2018-07-09T23:56:01.362Z,6.50
2018-07-09T23:59:18.140Z,6.03
